Pego, Spain
Current Conditions -  °F | °C
As of 5:00 AM on Monday 22 Dec 2014 (Local Time) from LEAL Reporting Station
Few Clouds Few Clouds  
Wind Chill: 46°   Ceiling: Unl
Heat Index: 48°   Visibility: 6mi
Dew Point: 46°   Wind: 6mph
Humidity: 93%   Direction: 310°NW
Pressure: 30.45"   Gusts: NA
Location:  38.84°N, 0.12°W
Report Text: LEAL 220400Z 31005KT 9000 FEW018 09/08 Q1031 NOSIG
Loading
Personal Weather Stations






























Interactive Weather Map New forecast layout! Learn more

10-Day Weather Forecast

Advertisements
Track Severe Weather on mobile